createdAt,value
2018-09-26T00:00:29.815Z,74.20
2018-09-26T00:01:16.263Z,75.10
2018-09-26T00:02:00.054Z,75.60
2018-09-26T00:02:42.590Z,75.90
2018-09-26T00:03:26.312Z,76.10
2018-09-26T00:04:14.644Z,76.40
2018-09-26T00:04:54.885Z,76.60
2018-09-26T00:05:34.136Z,76.80
2018-09-26T00:06:12.973Z,76.60
2018-09-26T00:06:51.726Z,75.30
2018-09-26T00:07:30.602Z,73.50
2018-09-26T00:08:09.320Z,72.60
2018-09-26T00:08:49.061Z,73.20
2018-09-26T00:09:30.254Z,73.40
2018-09-26T00:10:08.831Z,74.30
2018-09-26T00:10:47.605Z,74.70
2018-09-26T00:11:26.463Z,75.10
2018-09-26T00:12:05.262Z,75.60
2018-09-26T00:12:44.028Z,75.90
2018-09-26T00:13:22.923Z,76.00
2018-09-26T00:14:02.939Z,76.20
2018-09-26T00:14:41.542Z,76.50
2018-09-26T00:15:20.239Z,76.80
2018-09-26T00:15:59.060Z,75.20
2018-09-26T00:16:37.867Z,73.60
2018-09-26T00:17:16.761Z,72.60
2018-09-26T00:17:56.309Z,73.40
2018-09-26T00:18:36.326Z,73.80
2018-09-26T00:19:15.054Z,74.20
2018-09-26T00:19:53.963Z,75.00
2018-09-26T00:20:32.639Z,75.40
2018-09-26T00:21:11.475Z,75.70
2018-09-26T00:21:50.148Z,75.70
2018-09-26T00:22:28.999Z,75.90
2018-09-26T00:23:07.605Z,76.20
2018-09-26T00:23:46.252Z,76.40
2018-09-26T00:24:24.983Z,76.60
2018-09-26T00:25:03.688Z,75.50
2018-09-26T00:25:44.084Z,73.80
2018-09-26T00:26:23.085Z,72.50
2018-09-26T00:27:01.788Z,71.60
2018-09-26T00:27:40.363Z,72.60
2018-09-26T00:28:19.172Z,73.50
2018-09-26T00:28:58.254Z,73.70
2018-09-26T00:29:38.142Z,74.10
2018-09-26T00:30:18.024Z,74.50
2018-09-26T00:30:56.905Z,75.00
2018-09-26T00:31:36.629Z,75.40
2018-09-26T00:32:15.346Z,75.70
2018-09-26T00:32:54.353Z,75.90
2018-09-26T00:33:33.539Z,76.00
2018-09-26T00:34:14.832Z,76.20
2018-09-26T00:34:53.423Z,76.10
2018-09-26T00:35:32.226Z,76.10
2018-09-26T00:36:10.638Z,75.70
2018-09-26T00:36:49.918Z,75.70
2018-09-26T00:37:28.232Z,75.60
2018-09-26T00:38:06.707Z,75.60
2018-09-26T00:38:44.595Z,75.50
2018-09-26T00:39:22.527Z,75.60
2018-09-26T00:40:00.397Z,75.30
2018-09-26T00:40:38.312Z,75.40
2018-09-26T00:41:17.526Z,75.40
2018-09-26T00:41:55.409Z,75.30
2018-09-26T00:42:33.243Z,75.30
2018-09-26T00:43:11.033Z,75.50
2018-09-26T00:43:48.949Z,75.40
2018-09-26T00:44:26.797Z,75.70
2018-09-26T00:45:05.697Z,75.70
2018-09-26T00:45:43.861Z,75.70
2018-09-26T00:46:22.688Z,75.60
2018-09-26T00:47:00.541Z,75.80
2018-09-26T00:47:38.610Z,75.80
2018-09-26T00:48:16.615Z,75.70
2018-09-26T00:48:54.552Z,75.90
2018-09-26T00:49:32.410Z,76.00
2018-09-26T00:50:10.377Z,75.90
2018-09-26T00:50:49.283Z,76.60
2018-09-26T00:51:27.337Z,76.00
2018-09-26T00:52:05.405Z,75.90
2018-09-26T00:52:44.011Z,76.00
2018-09-26T00:53:21.988Z,76.00
2018-09-26T00:54:00.002Z,76.00
2018-09-26T00:54:37.821Z,76.20
2018-09-26T00:55:16.058Z,76.00
2018-09-26T00:55:54.041Z,76.10
2018-09-26T00:56:32.164Z,75.90
2018-09-26T00:57:10.191Z,75.80
2018-09-26T00:57:48.001Z,75.90
2018-09-26T00:58:25.837Z,76.70
2018-09-26T00:59:03.707Z,76.00
2018-09-26T00:59:41.580Z,76.10
2018-09-26T01:00:19.542Z,76.10
2018-09-26T01:00:57.418Z,76.20
2018-09-26T01:01:35.537Z,76.30
2018-09-26T01:02:13.364Z,76.30
2018-09-26T01:02:51.180Z,76.20
2018-09-26T01:03:33.168Z,76.30
2018-09-26T01:04:11.350Z,76.20
2018-09-26T01:04:49.325Z,76.90
2018-09-26T01:05:27.159Z,76.30
2018-09-26T01:06:05.303Z,76.30
2018-09-26T01:06:43.124Z,76.40
2018-09-26T01:07:22.175Z,76.40
2018-09-26T01:08:01.164Z,76.30
2018-09-26T01:08:39.013Z,76.20
2018-09-26T01:09:22.863Z,76.30
2018-09-26T01:10:00.695Z,76.20
2018-09-26T01:10:38.645Z,76.40
2018-09-26T01:11:16.500Z,76.30
2018-09-26T01:11:54.421Z,76.40
2018-09-26T01:12:32.357Z,76.30
2018-09-26T01:13:10.364Z,76.20
2018-09-26T01:13:48.152Z,76.20
2018-09-26T01:14:26.019Z,76.20
2018-09-26T01:15:03.851Z,76.30
2018-09-26T01:15:42.362Z,76.40
2018-09-26T01:16:21.153Z,76.30
2018-09-26T01:16:59.013Z,76.60
2018-09-26T01:17:37.141Z,76.40
2018-09-26T01:18:15.896Z,76.40
2018-09-26T01:18:54.000Z,76.40
2018-09-26T01:19:31.879Z,76.50
2018-09-26T01:20:09.711Z,76.40
2018-09-26T01:20:47.652Z,76.40
2018-09-26T01:21:27.040Z,76.40
2018-09-26T01:22:04.996Z,76.40
2018-09-26T01:22:42.831Z,76.40
2018-09-26T01:23:20.892Z,76.50
2018-09-26T01:23:58.741Z,76.50
2018-09-26T01:24:36.573Z,76.40
2018-09-26T01:25:14.410Z,76.40
2018-09-26T01:25:52.353Z,76.50
2018-09-26T01:26:30.355Z,76.50
2018-09-26T01:27:08.242Z,76.60
2018-09-26T01:27:46.335Z,76.70
2018-09-26T01:28:24.441Z,76.70
2018-09-26T01:29:02.437Z,76.60
2018-09-26T01:29:40.261Z,76.60
2018-09-26T01:30:18.417Z,76.60
2018-09-26T01:30:56.334Z,76.50
2018-09-26T01:31:35.096Z,76.60
2018-09-26T01:32:12.884Z,76.60
2018-09-26T01:32:50.902Z,77.10
2018-09-26T01:33:28.834Z,76.60
2018-09-26T01:34:06.759Z,76.60
2018-09-26T01:34:44.697Z,76.60
2018-09-26T01:35:22.658Z,76.60
2018-09-26T01:36:05.033Z,76.60
2018-09-26T01:36:43.086Z,76.60
2018-09-26T01:37:21.429Z,76.70
2018-09-26T01:37:59.281Z,76.60
2018-09-26T01:38:38.267Z,76.60
2018-09-26T01:39:16.216Z,76.60
2018-09-26T01:39:54.347Z,76.70
2018-09-26T01:40:34.303Z,76.70
2018-09-26T01:41:12.208Z,76.70
2018-09-26T01:41:51.099Z,76.70
2018-09-26T01:42:29.072Z,76.60
2018-09-26T01:43:08.117Z,76.70
2018-09-26T01:43:45.996Z,76.70
2018-09-26T01:44:23.975Z,76.70
2018-09-26T01:45:01.835Z,76.70
2018-09-26T01:45:39.697Z,76.60
2018-09-26T01:46:17.539Z,76.60
2018-09-26T01:46:55.323Z,76.60
2018-09-26T01:47:33.222Z,76.60
2018-09-26T01:48:12.016Z,76.60
2018-09-26T01:48:49.897Z,76.70
2018-09-26T01:49:27.848Z,76.70
2018-09-26T01:50:05.638Z,76.60
2018-09-26T01:50:44.138Z,76.70
2018-09-26T01:51:22.093Z,76.80
2018-09-26T01:52:00.998Z,76.70
2018-09-26T01:52:39.018Z,76.70
2018-09-26T01:53:16.852Z,76.70
2018-09-26T01:53:54.987Z,76.70
2018-09-26T01:54:32.899Z,76.70
2018-09-26T01:55:12.673Z,76.70
2018-09-26T01:55:50.722Z,76.70
2018-09-26T01:56:28.539Z,76.70
2018-09-26T01:57:06.430Z,77.20
2018-09-26T01:57:44.692Z,76.70
2018-09-26T01:58:22.526Z,76.70
2018-09-26T01:59:00.331Z,76.80
2018-09-26T01:59:38.141Z,76.80
2018-09-26T02:00:16.979Z,76.70
2018-09-26T02:00:55.068Z,76.80
2018-09-26T02:01:32.967Z,76.80
2018-09-26T02:02:13.234Z,76.80
2018-09-26T02:02:51.160Z,76.90
2018-09-26T02:03:29.277Z,76.90
2018-09-26T02:04:07.324Z,76.80
2018-09-26T02:04:45.227Z,77.20
2018-09-26T02:05:23.168Z,76.80
2018-09-26T02:06:01.310Z,76.80
2018-09-26T02:06:40.430Z,76.80
2018-09-26T02:07:18.432Z,76.80
2018-09-26T02:07:56.358Z,76.80
2018-09-26T02:08:34.451Z,76.70
2018-09-26T02:09:14.289Z,76.70
2018-09-26T02:09:52.411Z,76.80
2018-09-26T02:10:31.577Z,76.70
2018-09-26T02:11:09.566Z,76.80
2018-09-26T02:11:47.414Z,76.80
2018-09-26T02:12:25.258Z,76.90
2018-09-26T02:13:03.026Z,76.90
2018-09-26T02:13:41.879Z,76.80
2018-09-26T02:14:19.836Z,77.60
2018-09-26T02:14:57.625Z,77.00
2018-09-26T02:15:35.390Z,77.00
2018-09-26T02:16:13.415Z,77.00
2018-09-26T02:16:52.392Z,77.00
2018-09-26T02:17:30.198Z,77.00
2018-09-26T02:18:08.419Z,77.00
2018-09-26T02:18:46.842Z,77.00
2018-09-26T02:19:24.770Z,76.90
2018-09-26T02:20:02.705Z,77.00
2018-09-26T02:20:40.594Z,77.70
2018-09-26T02:21:18.661Z,77.10
2018-09-26T02:21:56.756Z,77.00
2018-09-26T02:22:35.614Z,77.00
2018-09-26T02:23:13.407Z,77.00
2018-09-26T02:23:51.227Z,77.10
2018-09-26T02:24:29.085Z,77.10
2018-09-26T02:25:06.931Z,77.00
2018-09-26T02:25:44.813Z,77.10
2018-09-26T02:26:22.652Z,77.10
2018-09-26T02:27:00.504Z,77.10
2018-09-26T02:27:38.405Z,77.20
2018-09-26T02:28:17.065Z,77.20
2018-09-26T02:28:55.348Z,77.20
2018-09-26T02:29:33.274Z,77.10
2018-09-26T02:30:13.165Z,77.10
2018-09-26T02:30:51.072Z,77.10
2018-09-26T02:31:28.912Z,77.10
2018-09-26T02:32:06.907Z,77.30
2018-09-26T02:32:44.875Z,77.20
2018-09-26T02:33:22.790Z,77.20
2018-09-26T02:34:00.807Z,77.20
2018-09-26T02:34:38.804Z,77.20
2018-09-26T02:35:16.793Z,77.10
2018-09-26T02:35:54.895Z,77.10
2018-09-26T02:36:32.866Z,77.20
2018-09-26T02:37:11.457Z,77.20
2018-09-26T02:37:49.797Z,77.10
2018-09-26T02:38:28.031Z,77.30
2018-09-26T02:39:06.464Z,77.20
2018-09-26T02:39:44.431Z,77.30
2018-09-26T02:40:22.385Z,77.40
2018-09-26T02:41:01.298Z,77.40
2018-09-26T02:41:39.474Z,77.40
2018-09-26T02:42:17.794Z,77.40
2018-09-26T02:42:56.203Z,77.40
2018-09-26T02:43:34.323Z,77.40
2018-09-26T02:44:12.683Z,77.30
2018-09-26T02:44:52.919Z,77.40
2018-09-26T02:45:31.973Z,77.30
2018-09-26T02:46:09.979Z,77.30
2018-09-26T02:46:47.925Z,77.30
2018-09-26T02:47:25.954Z,77.40
2018-09-26T02:48:03.886Z,77.40
2018-09-26T02:48:46.126Z,77.40
2018-09-26T02:49:24.158Z,78.10
2018-09-26T02:50:02.142Z,77.40
2018-09-26T02:50:40.488Z,77.30
2018-09-26T02:51:18.699Z,77.30
2018-09-26T02:51:56.599Z,77.30
2018-09-26T02:52:34.692Z,77.20
2018-09-26T02:53:12.858Z,77.20
2018-09-26T02:53:50.667Z,77.20
2018-09-26T02:54:28.732Z,77.30
2018-09-26T02:55:06.647Z,77.20
2018-09-26T02:55:44.685Z,77.30
2018-09-26T02:56:23.667Z,77.30
2018-09-26T02:57:01.518Z,77.40
2018-09-26T02:57:39.558Z,77.30
2018-09-26T02:58:17.471Z,77.30
2018-09-26T02:58:55.571Z,77.50
2018-09-26T02:59:33.660Z,77.50
2018-09-26T03:00:12.076Z,77.50
2018-09-26T03:00:50.277Z,77.40
2018-09-26T03:01:28.414Z,77.50
2018-09-26T03:02:06.494Z,77.50
2018-09-26T03:02:44.542Z,77.40
2018-09-26T03:03:23.682Z,77.40
2018-09-26T03:04:01.643Z,77.40
2018-09-26T03:04:41.480Z,77.20
2018-09-26T03:05:19.793Z,77.40
2018-09-26T03:05:57.715Z,77.30
2018-09-26T03:06:35.782Z,77.30
2018-09-26T03:07:14.028Z,78.00
2018-09-26T03:07:52.333Z,77.20
2018-09-26T03:08:30.264Z,77.20
2018-09-26T03:09:10.122Z,78.10
2018-09-26T03:09:48.013Z,77.30
2018-09-26T03:10:25.880Z,77.30
2018-09-26T03:11:03.769Z,77.30
2018-09-26T03:11:41.924Z,77.20
2018-09-26T03:12:20.013Z,76.40
2018-09-26T03:12:57.930Z,74.30
2018-09-26T03:13:36.225Z,74.10
2018-09-26T03:14:14.045Z,73.20
2018-09-26T03:14:52.679Z,72.90
2018-09-26T03:15:30.661Z,72.00
2018-09-26T03:16:08.680Z,71.70
2018-09-26T03:16:46.637Z,71.00
2018-09-26T03:17:24.623Z,70.10
2018-09-26T03:18:02.630Z,69.70
2018-09-26T03:18:41.698Z,69.20
2018-09-26T03:19:19.661Z,68.40
2018-09-26T03:19:57.725Z,68.20
2018-09-26T03:20:35.941Z,67.90
2018-09-26T03:21:13.884Z,68.20
2018-09-26T03:21:51.748Z,68.40
2018-09-26T03:22:29.653Z,68.30
2018-09-26T03:23:09.387Z,69.00
2018-09-26T03:23:49.027Z,68.70
2018-09-26T03:24:26.911Z,68.70
2018-09-26T03:25:05.042Z,69.20
2018-09-26T03:25:44.113Z,69.00
2018-09-26T03:26:22.080Z,70.20
2018-09-26T03:27:00.582Z,68.50
2018-09-26T03:27:38.685Z,68.60
2018-09-26T03:28:16.857Z,68.90
2018-09-26T03:28:54.883Z,69.00
2018-09-26T03:29:32.768Z,69.10
2018-09-26T03:30:10.803Z,69.10
2018-09-26T03:30:48.644Z,69.30
2018-09-26T03:31:26.521Z,68.90
2018-09-26T03:32:04.881Z,68.90
2018-09-26T03:32:43.012Z,68.90
2018-09-26T03:33:20.834Z,68.80
2018-09-26T03:33:58.712Z,68.90
2018-09-26T03:34:36.508Z,69.30
2018-09-26T03:35:14.407Z,69.30
2018-09-26T03:35:53.340Z,69.30
2018-09-26T03:36:32.804Z,69.20
2018-09-26T03:37:10.837Z,69.40
2018-09-26T03:37:48.668Z,69.40
2018-09-26T03:38:26.581Z,69.60
2018-09-26T03:39:04.647Z,69.80
2018-09-26T03:39:42.703Z,69.60
2018-09-26T03:40:20.593Z,69.50
2018-09-26T03:40:58.505Z,69.50
2018-09-26T03:41:36.588Z,69.90
2018-09-26T03:42:14.483Z,69.70
2018-09-26T03:42:54.907Z,70.00
2018-09-26T03:43:32.773Z,69.90
2018-09-26T03:44:10.702Z,70.10
2018-09-26T03:44:48.522Z,69.90
2018-09-26T03:45:26.543Z,70.00
2018-09-26T03:46:04.545Z,70.50
2018-09-26T03:46:42.390Z,70.90
2018-09-26T03:47:20.481Z,70.60
2018-09-26T03:47:58.351Z,70.60
2018-09-26T03:48:36.480Z,70.30
2018-09-26T03:49:14.508Z,70.50
2018-09-26T03:49:53.304Z,70.50
2018-09-26T03:50:32.040Z,70.70
2018-09-26T03:51:09.854Z,70.70
2018-09-26T03:51:47.696Z,71.00
2018-09-26T03:52:26.605Z,71.10
2018-09-26T03:53:04.749Z,71.20
2018-09-26T03:53:44.530Z,71.90
2018-09-26T03:54:36.634Z,71.00
2018-09-26T03:55:14.957Z,71.20
2018-09-26T03:55:52.824Z,71.20
2018-09-26T03:56:30.743Z,71.30
2018-09-26T03:57:08.560Z,71.20
2018-09-26T03:57:46.504Z,72.30
2018-09-26T03:58:24.695Z,71.40
2018-09-26T03:59:02.707Z,71.70
2018-09-26T03:59:41.157Z,71.60
2018-09-26T04:00:19.032Z,71.70
2018-09-26T04:00:57.072Z,71.50
2018-09-26T04:01:34.968Z,71.60
2018-09-26T04:02:12.946Z,71.80
2018-09-26T04:02:50.836Z,71.70
2018-09-26T04:03:28.705Z,71.70
2018-09-26T04:04:06.573Z,71.90
2018-09-26T04:04:44.472Z,71.90
2018-09-26T04:05:22.401Z,71.70
2018-09-26T04:06:00.307Z,71.70
2018-09-26T04:06:38.326Z,71.70
2018-09-26T04:07:16.148Z,71.90
2018-09-26T04:07:54.328Z,71.80
2018-09-26T04:08:32.297Z,71.70
2018-09-26T04:09:11.813Z,72.00
2018-09-26T04:09:49.625Z,72.00
2018-09-26T04:10:27.874Z,72.10
2018-09-26T04:11:05.832Z,72.10
2018-09-26T04:11:43.693Z,72.00
2018-09-26T04:12:21.658Z,72.10
2018-09-26T04:13:03.809Z,72.00
2018-09-26T04:13:41.694Z,72.20
2018-09-26T04:14:19.679Z,72.10
2018-09-26T04:14:57.629Z,72.10
2018-09-26T04:15:40.063Z,72.10
2018-09-26T04:16:19.146Z,72.10
2018-09-26T04:16:57.247Z,72.20
2018-09-26T04:17:35.501Z,72.20
2018-09-26T04:18:13.640Z,72.20
2018-09-26T04:18:51.548Z,72.20
2018-09-26T04:19:29.527Z,72.20
2018-09-26T04:20:07.430Z,72.20
2018-09-26T04:20:45.336Z,72.30
2018-09-26T04:21:23.421Z,72.20
2018-09-26T04:22:01.398Z,72.20
2018-09-26T04:22:39.348Z,72.20
2018-09-26T04:23:45.827Z,72.20
2018-09-26T04:24:23.641Z,72.20
2018-09-26T04:25:01.563Z,72.30
2018-09-26T04:25:39.552Z,72.30
2018-09-26T04:26:17.501Z,72.30
2018-09-26T04:26:55.768Z,72.30
2018-09-26T04:27:33.612Z,72.20
2018-09-26T04:28:11.814Z,72.20
2018-09-26T04:28:49.946Z,72.20
2018-09-26T04:29:27.818Z,72.30
2018-09-26T04:30:05.785Z,72.30
2018-09-26T04:30:43.750Z,72.30
2018-09-26T04:31:26.021Z,72.20
2018-09-26T04:32:03.889Z,72.20
2018-09-26T04:32:41.814Z,72.20
2018-09-26T04:33:19.956Z,72.20
2018-09-26T04:33:58.022Z,72.20
2018-09-26T04:34:36.806Z,72.10
2018-09-26T04:35:15.119Z,72.10
2018-09-26T04:35:54.122Z,72.30
2018-09-26T04:36:32.069Z,72.30
2018-09-26T04:37:10.237Z,72.30
2018-09-26T04:37:48.289Z,72.20
2018-09-26T04:38:26.161Z,72.10
2018-09-26T04:39:04.005Z,72.10
2018-09-26T04:39:41.795Z,72.10
2018-09-26T04:40:19.926Z,71.50
2018-09-26T04:40:57.841Z,72.70
2018-09-26T04:41:35.738Z,72.10
2018-09-26T04:42:13.727Z,72.10
2018-09-26T04:42:51.642Z,72.10
2018-09-26T04:43:29.744Z,72.10
2018-09-26T04:44:07.901Z,71.50
2018-09-26T04:44:46.607Z,72.10
2018-09-26T04:45:24.624Z,72.10
2018-09-26T04:46:02.463Z,72.10
2018-09-26T04:46:40.668Z,72.00
2018-09-26T04:47:18.591Z,72.10
2018-09-26T04:47:56.489Z,72.10
2018-09-26T04:48:34.658Z,72.00
2018-09-26T04:49:12.541Z,72.10
2018-09-26T04:49:50.330Z,72.00
2018-09-26T04:50:28.174Z,72.00
2018-09-26T04:51:06.163Z,72.00
2018-09-26T04:51:44.996Z,72.10
2018-09-26T04:52:22.951Z,72.10
2018-09-26T04:53:01.103Z,72.10
2018-09-26T04:53:39.287Z,72.00
2018-09-26T04:54:17.968Z,72.10
2018-09-26T04:54:55.857Z,72.10
2018-09-26T04:55:34.718Z,72.00
2018-09-26T04:56:12.675Z,72.00
2018-09-26T04:56:50.681Z,71.90
2018-09-26T04:57:28.589Z,72.10
2018-09-26T04:58:07.575Z,71.90
2018-09-26T04:58:45.569Z,71.90
2018-09-26T04:59:23.659Z,72.40
2018-09-26T05:00:01.473Z,71.90
2018-09-26T05:00:39.332Z,71.90
2018-09-26T05:01:17.228Z,72.00
2018-09-26T05:01:55.114Z,72.00
2018-09-26T05:02:33.243Z,72.00
2018-09-26T05:03:11.222Z,71.90
2018-09-26T05:03:49.225Z,72.00
2018-09-26T05:04:27.455Z,71.90
2018-09-26T05:05:05.262Z,71.90
2018-09-26T05:05:43.151Z,71.90
2018-09-26T05:06:21.099Z,71.80
2018-09-26T05:06:58.970Z,71.80
2018-09-26T05:07:37.196Z,71.90
2018-09-26T05:08:15.133Z,71.90
2018-09-26T05:08:53.289Z,71.90
2018-09-26T05:09:32.089Z,72.00
2018-09-26T05:10:10.179Z,72.00
2018-09-26T05:10:48.104Z,71.90
2018-09-26T05:11:26.186Z,71.90
2018-09-26T05:12:04.158Z,71.80
2018-09-26T05:12:41.990Z,71.70
2018-09-26T05:13:20.005Z,71.80
2018-09-26T05:13:57.849Z,71.70
2018-09-26T05:14:35.834Z,71.70
2018-09-26T05:15:13.808Z,71.80
2018-09-26T05:15:51.949Z,71.70
2018-09-26T05:16:29.860Z,71.80
2018-09-26T05:17:08.682Z,71.60
2018-09-26T05:17:46.771Z,71.80
2018-09-26T05:18:24.582Z,71.90
2018-09-26T05:19:02.592Z,71.80
2018-09-26T05:19:40.577Z,71.90
2018-09-26T05:20:18.981Z,71.70
2018-09-26T05:20:57.123Z,71.70
2018-09-26T05:21:35.371Z,71.70
2018-09-26T05:22:13.189Z,71.00
2018-09-26T05:22:52.396Z,72.10
2018-09-26T05:23:30.521Z,71.90
2018-09-26T05:24:08.595Z,71.90
2018-09-26T05:24:46.500Z,71.80
2018-09-26T05:25:24.527Z,71.70
2018-09-26T05:26:02.360Z,71.60
2018-09-26T05:26:40.230Z,71.80
2018-09-26T05:27:18.209Z,71.90
2018-09-26T05:27:56.105Z,71.80
2018-09-26T05:28:34.109Z,71.80
2018-09-26T05:29:12.047Z,71.80
2018-09-26T05:29:50.037Z,71.80
2018-09-26T05:30:28.283Z,71.80
2018-09-26T05:31:06.118Z,71.70
2018-09-26T05:31:44.129Z,71.70
2018-09-26T05:32:22.056Z,71.70
2018-09-26T05:33:00.037Z,72.10
2018-09-26T05:33:37.883Z,71.80
2018-09-26T05:34:16.622Z,72.00
2018-09-26T05:34:54.554Z,72.30
2018-09-26T05:35:32.408Z,72.20
2018-09-26T05:36:10.275Z,72.00
2018-09-26T05:36:48.184Z,72.00
2018-09-26T05:37:26.311Z,71.80
2018-09-26T05:38:04.365Z,72.80
2018-09-26T05:38:43.262Z,72.00
2018-09-26T05:39:21.033Z,72.00
2018-09-26T05:39:58.972Z,72.10
2018-09-26T05:40:37.436Z,72.20
2018-09-26T05:41:15.341Z,72.10
2018-09-26T05:41:54.425Z,72.20
2018-09-26T05:42:32.424Z,72.10
2018-09-26T05:43:10.567Z,72.30
2018-09-26T05:43:48.509Z,72.00
2018-09-26T05:44:26.335Z,72.10
2018-09-26T05:45:04.219Z,72.00
2018-09-26T05:45:42.099Z,71.80
2018-09-26T05:46:20.026Z,71.80
2018-09-26T05:46:58.097Z,72.00
2018-09-26T05:47:35.861Z,72.00
2018-09-26T05:48:13.702Z,72.00
2018-09-26T05:48:51.558Z,72.00
2018-09-26T05:49:29.412Z,71.80
2018-09-26T05:50:07.269Z,72.00
2018-09-26T05:50:45.047Z,72.00
2018-09-26T05:51:22.926Z,72.00
2018-09-26T05:52:01.370Z,72.60
2018-09-26T05:52:40.862Z,72.10
2018-09-26T05:53:18.776Z,72.00
2018-09-26T05:53:56.672Z,72.10
2018-09-26T05:54:34.658Z,71.90
2018-09-26T05:55:13.594Z,72.10
2018-09-26T05:55:51.401Z,71.90
2018-09-26T05:56:29.237Z,71.90
2018-09-26T05:57:07.088Z,72.10
2018-09-26T05:57:44.857Z,72.00
2018-09-26T05:58:22.771Z,71.90
2018-09-26T05:59:00.849Z,71.90
2018-09-26T05:59:39.094Z,71.80
2018-09-26T06:00:17.111Z,72.00
2018-09-26T06:00:55.012Z,72.20
2018-09-26T06:01:32.826Z,72.10
2018-09-26T06:02:10.966Z,72.00
2018-09-26T06:02:48.836Z,72.10
2018-09-26T06:03:26.653Z,71.90
2018-09-26T06:04:04.669Z,72.10
2018-09-26T06:04:43.567Z,72.00
2018-09-26T06:05:21.550Z,72.10
2018-09-26T06:05:59.353Z,71.80
2018-09-26T06:06:37.158Z,71.80
2018-09-26T06:07:14.983Z,71.80
2018-09-26T06:07:53.330Z,72.10
2018-09-26T06:08:31.146Z,71.90
2018-09-26T06:09:13.993Z,71.80
2018-09-26T06:09:51.951Z,71.70
2018-09-26T06:10:29.758Z,71.80
2018-09-26T06:11:07.645Z,71.70
2018-09-26T06:11:46.047Z,71.70
2018-09-26T06:12:24.066Z,71.90
2018-09-26T06:13:03.064Z,71.60
2018-09-26T06:13:41.073Z,71.90
2018-09-26T06:14:19.008Z,71.80
2018-09-26T06:14:58.114Z,71.80
2018-09-26T06:15:35.953Z,72.00
2018-09-26T06:16:13.786Z,72.10
2018-09-26T06:16:54.057Z,72.80
2018-09-26T06:17:32.869Z,71.90
2018-09-26T06:18:10.903Z,71.90
2018-09-26T06:18:48.794Z,72.00
2018-09-26T06:19:26.621Z,72.00
2018-09-26T06:20:04.464Z,71.90
2018-09-26T06:20:42.393Z,72.00
2018-09-26T06:21:20.244Z,72.10
2018-09-26T06:21:58.068Z,71.90
2018-09-26T06:22:36.109Z,71.90
2018-09-26T06:23:14.593Z,71.70
2018-09-26T06:23:52.425Z,72.10
2018-09-26T06:24:30.237Z,71.90
2018-09-26T06:25:08.330Z,71.90
2018-09-26T06:25:46.133Z,71.90
2018-09-26T06:26:24.150Z,71.90
2018-09-26T06:27:01.970Z,72.10
2018-09-26T06:27:39.980Z,72.10
2018-09-26T06:28:17.896Z,71.90
2018-09-26T06:28:56.677Z,72.10
2018-09-26T06:29:34.695Z,72.20
2018-09-26T06:30:13.784Z,72.10
2018-09-26T06:30:52.626Z,72.10
2018-09-26T06:31:30.497Z,72.20
2018-09-26T06:32:08.469Z,72.20
2018-09-26T06:32:47.254Z,72.20
2018-09-26T06:33:25.368Z,72.20
2018-09-26T06:34:03.191Z,72.10
2018-09-26T06:34:41.120Z,72.30
2018-09-26T06:35:19.300Z,72.10
2018-09-26T06:35:57.428Z,72.10
2018-09-26T06:36:35.412Z,72.20
2018-09-26T06:37:13.387Z,73.10
2018-09-26T06:37:51.390Z,73.30
2018-09-26T06:38:29.466Z,72.30
2018-09-26T06:39:09.352Z,72.10
2018-09-26T06:39:47.189Z,72.30
2018-09-26T06:40:25.094Z,72.50
2018-09-26T06:41:02.992Z,72.30
2018-09-26T06:41:40.937Z,72.50
2018-09-26T06:42:18.790Z,72.40
2018-09-26T06:42:56.654Z,73.10
2018-09-26T06:43:34.621Z,72.40
2018-09-26T06:44:12.736Z,72.70
2018-09-26T06:44:50.643Z,72.70
2018-09-26T06:45:28.542Z,72.50
2018-09-26T06:46:06.476Z,72.10
2018-09-26T06:46:44.594Z,72.60
2018-09-26T06:47:22.472Z,73.20
2018-09-26T06:48:00.422Z,72.70
2018-09-26T06:48:38.397Z,72.50
2018-09-26T06:49:16.456Z,72.60
2018-09-26T06:49:54.289Z,72.70
2018-09-26T06:50:32.301Z,72.80
2018-09-26T06:51:10.257Z,72.70
2018-09-26T06:51:48.096Z,72.20
2018-09-26T06:52:25.897Z,72.60
2018-09-26T06:53:03.926Z,72.70
2018-09-26T06:53:42.029Z,72.40
2018-09-26T06:54:19.909Z,72.50
2018-09-26T06:54:58.102Z,72.70
2018-09-26T06:55:36.173Z,72.50
2018-09-26T06:56:14.145Z,72.50
2018-09-26T06:56:52.129Z,72.80
2018-09-26T06:57:30.127Z,73.10
2018-09-26T06:58:07.937Z,72.80
2018-09-26T06:58:45.929Z,72.50
2018-09-26T06:59:23.829Z,72.50
2018-09-26T07:00:02.370Z,72.80
2018-09-26T07:00:40.249Z,72.60
2018-09-26T07:01:18.160Z,72.90
2018-09-26T07:01:56.016Z,72.70
2018-09-26T07:02:34.067Z,72.90
2018-09-26T07:03:11.971Z,72.60
2018-09-26T07:03:50.239Z,72.70
2018-09-26T07:04:28.384Z,72.70
2018-09-26T07:05:06.246Z,72.40
2018-09-26T07:05:44.224Z,72.80
2018-09-26T07:06:22.123Z,72.60
2018-09-26T07:06:59.850Z,72.70
2018-09-26T07:07:38.051Z,72.60
2018-09-26T07:08:16.830Z,72.70
2018-09-26T07:08:54.821Z,72.80
2018-09-26T07:09:32.742Z,72.80
2018-09-26T07:10:10.733Z,72.70
2018-09-26T07:10:48.793Z,72.50
2018-09-26T07:11:26.703Z,72.80
2018-09-26T07:12:04.545Z,72.40
2018-09-26T07:12:42.429Z,72.70
2018-09-26T07:13:20.417Z,72.60
2018-09-26T07:13:58.544Z,72.70
2018-09-26T07:14:36.570Z,72.80
2018-09-26T07:15:14.581Z,73.10
2018-09-26T07:15:52.421Z,72.50
2018-09-26T07:16:30.204Z,72.70
2018-09-26T07:17:08.117Z,72.80
2018-09-26T07:17:46.868Z,72.60
2018-09-26T07:18:24.739Z,73.00
2018-09-26T07:19:02.721Z,73.10
2018-09-26T07:19:40.877Z,72.90
2018-09-26T07:20:18.723Z,72.90
2018-09-26T07:20:56.702Z,72.70
2018-09-26T07:21:34.533Z,72.80
2018-09-26T07:22:13.570Z,72.40
2018-09-26T07:22:51.435Z,72.90
2018-09-26T07:23:29.511Z,72.70
2018-09-26T07:24:07.595Z,72.40
2018-09-26T07:24:46.091Z,72.50
2018-09-26T07:25:24.328Z,72.70
2018-09-26T07:26:02.248Z,72.70
2018-09-26T07:26:40.705Z,72.80
2018-09-26T07:27:18.931Z,72.70
2018-09-26T07:27:56.793Z,73.40
2018-09-26T07:28:34.657Z,72.30
2018-09-26T07:29:13.877Z,72.50
2018-09-26T07:29:53.387Z,72.40
2018-09-26T07:30:31.339Z,72.50
2018-09-26T07:31:09.208Z,73.40
2018-09-26T07:31:47.806Z,72.50
2018-09-26T07:32:25.698Z,73.10
2018-09-26T07:33:04.396Z,72.30
2018-09-26T07:33:42.586Z,72.60
2018-09-26T07:34:23.597Z,72.70
2018-09-26T07:35:02.220Z,72.30
2018-09-26T07:35:40.071Z,72.50
2018-09-26T07:36:17.957Z,72.70
2018-09-26T07:36:55.975Z,72.60
2018-09-26T07:37:33.866Z,72.50
2018-09-26T07:38:11.849Z,72.80
2018-09-26T07:38:49.686Z,72.50
2018-09-26T07:39:27.694Z,72.10
2018-09-26T07:40:05.593Z,72.30
2018-09-26T07:40:43.531Z,72.10
2018-09-26T07:41:21.350Z,72.30
2018-09-26T07:41:59.253Z,73.50
2018-09-26T07:42:37.158Z,72.60
2018-09-26T07:43:15.076Z,72.60
2018-09-26T07:43:55.739Z,72.20
2018-09-26T07:44:33.678Z,72.00
2018-09-26T07:45:13.334Z,71.90
2018-09-26T07:45:51.358Z,72.40
2018-09-26T07:46:29.252Z,72.40
2018-09-26T07:47:07.081Z,72.20
2018-09-26T07:47:44.901Z,72.50
2018-09-26T07:48:22.779Z,72.40
2018-09-26T07:49:00.700Z,72.10
2018-09-26T07:49:38.672Z,72.00
2018-09-26T07:50:16.694Z,72.40
2018-09-26T07:50:54.545Z,72.30
2018-09-26T07:51:32.573Z,72.30
2018-09-26T07:52:12.091Z,72.30
2018-09-26T07:52:50.137Z,72.10
2018-09-26T07:53:28.231Z,72.10
2018-09-26T07:54:06.262Z,72.30
2018-09-26T07:54:44.163Z,72.30
2018-09-26T07:55:22.034Z,72.90
2018-09-26T07:56:00.748Z,72.10
2018-09-26T07:56:38.755Z,72.30
2018-09-26T07:57:16.605Z,72.30
2018-09-26T07:57:54.630Z,72.30
2018-09-26T07:58:32.498Z,72.00
2018-09-26T07:59:11.787Z,72.00
2018-09-26T07:59:49.869Z,72.20
2018-09-26T08:00:29.813Z,72.00
2018-09-26T08:01:07.892Z,72.30
2018-09-26T08:01:45.872Z,72.00
2018-09-26T08:02:23.715Z,72.00
2018-09-26T08:03:15.880Z,71.80
2018-09-26T08:03:53.965Z,71.70
2018-09-26T08:04:31.929Z,71.60
2018-09-26T08:05:09.962Z,71.90
2018-09-26T08:05:47.892Z,72.00
2018-09-26T08:06:25.745Z,72.00
2018-09-26T08:07:03.673Z,71.90
2018-09-26T08:07:41.803Z,71.80
2018-09-26T08:08:19.701Z,71.40
2018-09-26T08:08:57.576Z,71.80
2018-09-26T08:09:35.414Z,71.80
2018-09-26T08:10:13.307Z,71.90
2018-09-26T08:10:51.560Z,71.80
2018-09-26T08:11:30.117Z,71.90
2018-09-26T08:12:08.192Z,71.80
2018-09-26T08:12:46.045Z,71.80
2018-09-26T08:13:24.425Z,71.80
2018-09-26T08:14:02.310Z,71.80